Lamine, Missouri
Current Conditions -  °F | °C
As of 4:15 AM on Saturday 22 Nov 2014 (Local Time) from KVER Reporting Station
Overcast Overcast  
Wind Chill: 50°   Ceiling: 2200
Heat Index: 50°   Visibility: 10mi
Dew Point: 45°   Wind: 9mph
Humidity: 82%   Direction: 170°S
Pressure: 30.05"   Gusts: NA
Location:  38.8814°N, 92.7602°W
Report Text: KVER 221015Z AUTO 17008KT 10SM OVC022 10/07 A3005 RMK AO2 LTG DSNT SW T01010071
Loading
Personal Weather Stations






























Interactive Weather Map New forecast layout! Learn more

10-Day Weather Forecast

Advertisements
Track Severe Weather on mobile